LNI805 WADD-WARR
Flight info
| Callsign | LNI805 |
|---|---|
| Flight time | 0h 47m |
| Altitude | 26000 |
| Route | OKANG |
| Aircraft | B739/M-SDE2E3FGHIRWXY/LB1 |
Departure
| Time | 2026-04-28 09:28 |
|---|---|
| Airport | Denpasar I Gusti Ngurah Rai International Airport (WADD) |
Arrival
| Time | 2026-04-28 10:15 |
|---|---|
| Airport | Juanda International Airport (WARR) |
| Time | Latitude | Longitude | Altitude | Speed | Heading |
|---|---|---|---|---|---|
| 2026-04-28 08:29 | -8.74562 | 115.16472 | 30 ft | 0 kts | 358° |
| 2026-04-28 09:07 | -8.74571 | 115.16472 | 32 ft | 4 kts | 358° |
| 2026-04-28 09:07 | -8.74592 | 115.16473 | 31 ft | 4 kts | 358° |
| 2026-04-28 09:08 | -8.74619 | 115.16474 | 29 ft | 4 kts | 358° |
| 2026-04-28 09:08 | -8.74645 | 115.16475 | 31 ft | 4 kts | 356° |
| 2026-04-28 09:08 | -8.74669 | 115.16482 | 32 ft | 4 kts | 319° |
| 2026-04-28 09:08 | -8.74685 | 115.16503 | 31 ft | 4 kts | 287° |
| 2026-04-28 09:09 | -8.74688 | 115.16523 | 31 ft | 0 kts | 268° |
| 2026-04-28 09:18 | -8.74688 | 115.16520 | 31 ft | 1 kts | 268° |
| 2026-04-28 09:19 | -8.74688 | 115.16516 | 31 ft | 1 kts | 268° |
| 2026-04-28 09:19 | -8.74688 | 115.16512 | 31 ft | 1 kts | 268° |
| 2026-04-28 09:20 | -8.74689 | 115.16507 | 31 ft | 1 kts | 268° |
| 2026-04-28 09:21 | -8.74689 | 115.16500 | 31 ft | 1 kts | 267° |
| 2026-04-28 09:21 | -8.74689 | 115.16493 | 31 ft | 1 kts | 267° |
| 2026-04-28 09:21 | -8.74689 | 115.16486 | 31 ft | 1 kts | 267° |
| 2026-04-28 09:22 | -8.74690 | 115.16482 | 31 ft | 1 kts | 267° |
| 2026-04-28 09:22 | -8.74690 | 115.16479 | 31 ft | 1 kts | 267° |
| 2026-04-28 09:23 | -8.74691 | 115.16459 | 31 ft | 6 kts | 267° |
| 2026-04-28 09:23 | -8.74693 | 115.16410 | 31 ft | 8 kts | 267° |
| 2026-04-28 09:23 | -8.74696 | 115.16350 | 32 ft | 9 kts | 268° |
| 2026-04-28 09:23 | -8.74698 | 115.16281 | 32 ft | 10 kts | 268° |
| 2026-04-28 09:24 | -8.74701 | 115.16216 | 32 ft | 9 kts | 268° |
| 2026-04-28 09:24 | -8.74704 | 115.16146 | 32 ft | 11 kts | 268° |
| 2026-04-28 09:24 | -8.74706 | 115.16067 | 32 ft | 12 kts | 268° |
| 2026-04-28 09:24 | -8.74710 | 115.15973 | 32 ft | 16 kts | 267° |
| 2026-04-28 09:25 | -8.74715 | 115.15855 | 32 ft | 18 kts | 267° |
| 2026-04-28 09:25 | -8.74721 | 115.15719 | 31 ft | 18 kts | 269° |
| 2026-04-28 09:25 | -8.74725 | 115.15592 | 31 ft | 18 kts | 269° |
| 2026-04-28 09:25 | -8.74728 | 115.15504 | 31 ft | 7 kts | 268° |
| 2026-04-28 09:26 | -8.74730 | 115.15453 | 31 ft | 7 kts | 264° |
| 2026-04-28 09:26 | -8.74747 | 115.15407 | 30 ft | 7 kts | 237° |
| 2026-04-28 09:26 | -8.74800 | 115.15387 | 30 ft | 10 kts | 178° |
| 2026-04-28 09:26 | -8.74866 | 115.15393 | 27 ft | 10 kts | 166° |
| 2026-04-28 09:27 | -8.74888 | 115.15642 | 27 ft | 61 kts | 88° |
| 2026-04-28 09:27 | -8.74861 | 115.16320 | 27 ft | 128 kts | 88° |
| 2026-04-28 09:27 | -8.74817 | 115.17401 | 112 ft | 172 kts | 89° |
| 2026-04-28 09:28 | -8.74757 | 115.18644 | 689 ft | 183 kts | 90° |
| 2026-04-28 09:28 | -8.74709 | 115.19987 | 1210 ft | 199 kts | 88° |
| 2026-04-28 09:28 | -8.74619 | 115.21419 | 1823 ft | 206 kts | 85° |
| 2026-04-28 09:28 | -8.74488 | 115.22893 | 2365 ft | 216 kts | 84° |
| 2026-04-28 09:29 | -8.74329 | 115.24428 | 2966 ft | 221 kts | 83° |
| 2026-04-28 09:29 | -8.74170 | 115.25948 | 3739 ft | 218 kts | 84° |
| 2026-04-28 09:29 | -8.74028 | 115.27581 | 3832 ft | 255 kts | 86° |
| 2026-04-28 09:29 | -8.73970 | 115.29588 | 3191 ft | 318 kts | 89° |
| 2026-04-28 09:30 | -8.73934 | 115.31920 | 3572 ft | 332 kts | 90° |
| 2026-04-28 09:30 | -8.73949 | 115.34182 | 4774 ft | 320 kts | 90° |
| 2026-04-28 09:30 | -8.73946 | 115.36365 | 6140 ft | 301 kts | 89° |
| 2026-04-28 09:30 | -8.73913 | 115.38424 | 7358 ft | 286 kts | 89° |
| 2026-04-28 09:31 | -8.73831 | 115.40397 | 8406 ft | 279 kts | 81° |
| 2026-04-28 09:31 | -8.73075 | 115.42182 | 9146 ft | 283 kts | 50° |
| 2026-04-28 09:31 | -8.71497 | 115.43385 | 9851 ft | 290 kts | 25° |
| 2026-04-28 09:31 | -8.69520 | 115.43880 | 10382 ft | 303 kts | 4° |
| 2026-04-28 09:32 | -8.67338 | 115.43616 | 10543 ft | 329 kts | 346° |
| 2026-04-28 09:32 | -8.65172 | 115.42642 | 10692 ft | 353 kts | 330° |
| 2026-04-28 09:32 | -8.63088 | 115.41193 | 10834 ft | 373 kts | 325° |
| 2026-04-28 09:32 | -8.60967 | 115.39586 | 11078 ft | 387 kts | 324° |
| 2026-04-28 09:33 | -8.58790 | 115.37951 | 11516 ft | 392 kts | 325° |
| 2026-04-28 09:33 | -8.56569 | 115.36334 | 12057 ft | 395 kts | 326° |
| 2026-04-28 09:33 | -8.54322 | 115.34745 | 12710 ft | 393 kts | 326° |
| 2026-04-28 09:33 | -8.52097 | 115.33194 | 13253 ft | 396 kts | 326° |
| 2026-04-28 09:34 | -8.49809 | 115.31607 | 13649 ft | 403 kts | 326° |
| 2026-04-28 09:34 | -8.47659 | 115.29713 | 14009 ft | 409 kts | 308° |
| 2026-04-28 09:34 | -8.46337 | 115.27225 | 14530 ft | 409 kts | 289° |
| 2026-04-28 09:34 | -8.45818 | 115.24407 | 15020 ft | 410 kts | 271° |
| 2026-04-28 09:35 | -8.45899 | 115.21528 | 15462 ft | 412 kts | 267° |
| 2026-04-28 09:35 | -8.46038 | 115.18623 | 15854 ft | 415 kts | 267° |
| 2026-04-28 09:35 | -8.46173 | 115.15700 | 16257 ft | 418 kts | 268° |
| 2026-04-28 09:35 | -8.46292 | 115.12758 | 16692 ft | 420 kts | 268° |
| 2026-04-28 09:36 | -8.46395 | 115.09806 | 17109 ft | 422 kts | 268° |
| 2026-04-28 09:36 | -8.46490 | 115.06834 | 17506 ft | 424 kts | 268° |
| 2026-04-28 09:36 | -8.46579 | 115.03850 | 17886 ft | 426 kts | 270° |
| 2026-04-28 09:36 | -8.46192 | 115.00889 | 18197 ft | 429 kts | 289° |
| 2026-04-28 09:37 | -8.44818 | 114.98225 | 18528 ft | 429 kts | 307° |
| 2026-04-28 09:37 | -8.42762 | 114.96057 | 18789 ft | 429 kts | 324° |
| 2026-04-28 09:37 | -8.40237 | 114.94453 | 19208 ft | 429 kts | 330° |
| 2026-04-28 09:37 | -8.37641 | 114.92942 | 19493 ft | 432 kts | 330° |
| 2026-04-28 09:38 | -8.35041 | 114.91395 | 19778 ft | 434 kts | 330° |
| 2026-04-28 09:38 | -8.32431 | 114.89839 | 20078 ft | 436 kts | 330° |
| 2026-04-28 09:38 | -8.29812 | 114.88287 | 20388 ft | 437 kts | 330° |
| 2026-04-28 09:38 | -8.27181 | 114.86731 | 20677 ft | 439 kts | 330° |
| 2026-04-28 09:39 | -8.24575 | 114.85188 | 20980 ft | 440 kts | 330° |
| 2026-04-28 09:39 | -8.21927 | 114.83620 | 21277 ft | 442 kts | 330° |
| 2026-04-28 09:39 | -8.19272 | 114.82046 | 21533 ft | 444 kts | 330° |
| 2026-04-28 09:39 | -8.16605 | 114.80465 | 21798 ft | 445 kts | 330° |
| 2026-04-28 09:40 | -8.13933 | 114.78880 | 22071 ft | 446 kts | 330° |
| 2026-04-28 09:40 | -8.11249 | 114.77289 | 22300 ft | 448 kts | 330° |
| 2026-04-28 09:40 | -8.08548 | 114.75687 | 22519 ft | 450 kts | 330° |
| 2026-04-28 09:40 | -8.05836 | 114.74080 | 22776 ft | 451 kts | 330° |
| 2026-04-28 09:41 | -8.03123 | 114.72472 | 23016 ft | 453 kts | 330° |
| 2026-04-28 09:41 | -8.00399 | 114.70857 | 23232 ft | 455 kts | 330° |
| 2026-04-28 09:41 | -7.97666 | 114.69237 | 23445 ft | 456 kts | 330° |
| 2026-04-28 09:41 | -7.94929 | 114.67616 | 23636 ft | 457 kts | 330° |
| 2026-04-28 09:42 | -7.92320 | 114.65781 | 23772 ft | 460 kts | 318° |
| 2026-04-28 09:42 | -7.90251 | 114.63299 | 23904 ft | 464 kts | 303° |
| 2026-04-28 09:42 | -7.88847 | 114.60416 | 24080 ft | 466 kts | 289° |
| 2026-04-28 09:42 | -7.87981 | 114.57263 | 24282 ft | 467 kts | 285° |
| 2026-04-28 09:43 | -7.87193 | 114.54073 | 24408 ft | 469 kts | 284° |
| 2026-04-28 09:43 | -7.86410 | 114.50873 | 24567 ft | 470 kts | 285° |
| 2026-04-28 09:43 | -7.85612 | 114.47669 | 24704 ft | 472 kts | 285° |
| 2026-04-28 09:43 | -7.84795 | 114.44465 | 24895 ft | 472 kts | 285° |
| 2026-04-28 09:44 | -7.83965 | 114.41258 | 25096 ft | 472 kts | 285° |
| 2026-04-28 09:44 | -7.83127 | 114.38059 | 25354 ft | 471 kts | 285° |
| 2026-04-28 09:44 | -7.82286 | 114.34866 | 25532 ft | 472 kts | 285° |
| 2026-04-28 09:44 | -7.81441 | 114.31664 | 25632 ft | 475 kts | 285° |
| 2026-04-28 09:45 | -7.80590 | 114.28443 | 25754 ft | 473 kts | 285° |
| 2026-04-28 09:45 | -7.79743 | 114.25234 | 25838 ft | 473 kts | 285° |
| 2026-04-28 09:45 | -7.78895 | 114.22022 | 25854 ft | 475 kts | 285° |
| 2026-04-28 09:45 | -7.78057 | 114.18844 | 25860 ft | 476 kts | 285° |
| 2026-04-28 09:46 | -7.77205 | 114.15616 | 25865 ft | 477 kts | 285° |
| 2026-04-28 09:46 | -7.76351 | 114.12377 | 25867 ft | 478 kts | 285° |
| 2026-04-28 09:46 | -7.75498 | 114.09131 | 25846 ft | 479 kts | 284° |
| 2026-04-28 09:46 | -7.74947 | 114.05817 | 25848 ft | 480 kts | 275° |
| 2026-04-28 09:47 | -7.74782 | 114.02452 | 25849 ft | 482 kts | 272° |
| 2026-04-28 09:47 | -7.74708 | 113.99074 | 25851 ft | 482 kts | 271° |
| 2026-04-28 09:47 | -7.74643 | 113.95694 | 25850 ft | 483 kts | 271° |
| 2026-04-28 09:47 | -7.74554 | 113.92312 | 25848 ft | 483 kts | 272° |
| 2026-04-28 09:48 | -7.74436 | 113.88925 | 25849 ft | 483 kts | 272° |
| 2026-04-28 09:48 | -7.74296 | 113.85537 | 25855 ft | 484 kts | 273° |
| 2026-04-28 09:48 | -7.74144 | 113.82149 | 25854 ft | 484 kts | 273° |
| 2026-04-28 09:48 | -7.73987 | 113.78757 | 25848 ft | 485 kts | 273° |
| 2026-04-28 09:49 | -7.73829 | 113.75354 | 25850 ft | 485 kts | 273° |
| 2026-04-28 09:49 | -7.73672 | 113.71958 | 25851 ft | 485 kts | 273° |
| 2026-04-28 09:49 | -7.73517 | 113.68557 | 25853 ft | 486 kts | 273° |
| 2026-04-28 09:49 | -7.73362 | 113.65153 | 25852 ft | 486 kts | 273° |
| 2026-04-28 09:50 | -7.73207 | 113.61748 | 25845 ft | 486 kts | 273° |
| 2026-04-28 09:50 | -7.73052 | 113.58336 | 25808 ft | 487 kts | 273° |
| 2026-04-28 09:50 | -7.72892 | 113.54903 | 25241 ft | 490 kts | 274° |
| 2026-04-28 09:50 | -7.72455 | 113.51558 | 24541 ft | 485 kts | 283° |
| 2026-04-28 09:51 | -7.71607 | 113.48293 | 23852 ft | 479 kts | 286° |
| 2026-04-28 09:51 | -7.70683 | 113.45075 | 23093 ft | 475 kts | 287° |
| 2026-04-28 09:51 | -7.69776 | 113.41884 | 22318 ft | 470 kts | 286° |
| 2026-04-28 09:51 | -7.68919 | 113.38732 | 21620 ft | 464 kts | 285° |
| 2026-04-28 09:52 | -7.68103 | 113.35611 | 20930 ft | 458 kts | 285° |
| 2026-04-28 09:52 | -7.67314 | 113.32521 | 20260 ft | 452 kts | 284° |
| 2026-04-28 09:52 | -7.66537 | 113.29465 | 19564 ft | 448 kts | 285° |
| 2026-04-28 09:52 | -7.65764 | 113.26434 | 18895 ft | 444 kts | 285° |
| 2026-04-28 09:53 | -7.65023 | 113.23423 | 18218 ft | 441 kts | 283° |
| 2026-04-28 09:53 | -7.64400 | 113.20411 | 17472 ft | 438 kts | 282° |
| 2026-04-28 09:53 | -7.63836 | 113.17411 | 16803 ft | 433 kts | 281° |
| 2026-04-28 09:53 | -7.63288 | 113.14440 | 16153 ft | 428 kts | 281° |
| 2026-04-28 09:54 | -7.62747 | 113.11542 | 15528 ft | 424 kts | 281° |
| 2026-04-28 09:54 | -7.62195 | 113.08633 | 14907 ft | 420 kts | 281° |
| 2026-04-28 09:54 | -7.61638 | 113.05752 | 14316 ft | 416 kts | 281° |
| 2026-04-28 09:54 | -7.61091 | 113.02939 | 14128 ft | 401 kts | 281° |
| 2026-04-28 09:55 | -7.60561 | 113.00232 | 13952 ft | 387 kts | 281° |
| 2026-04-28 09:55 | -7.60048 | 112.97613 | 13788 ft | 374 kts | 281° |
| 2026-04-28 09:55 | -7.59551 | 112.95079 | 13628 ft | 363 kts | 281° |
| 2026-04-28 09:55 | -7.59070 | 112.92621 | 13457 ft | 351 kts | 281° |
| 2026-04-28 09:56 | -7.58603 | 112.90238 | 13299 ft | 341 kts | 281° |
| 2026-04-28 09:56 | -7.58151 | 112.87932 | 13150 ft | 330 kts | 281° |
| 2026-04-28 09:56 | -7.57713 | 112.85695 | 13007 ft | 320 kts | 281° |
| 2026-04-28 09:56 | -7.57287 | 112.83523 | 12872 ft | 311 kts | 281° |
| 2026-04-28 09:57 | -7.56881 | 112.81451 | 12815 ft | 299 kts | 281° |
| 2026-04-28 09:57 | -7.56485 | 112.79418 | 12810 ft | 294 kts | 281° |
| 2026-04-28 09:57 | -7.56090 | 112.77392 | 12818 ft | 295 kts | 281° |
| 2026-04-28 09:57 | -7.55694 | 112.75354 | 12821 ft | 297 kts | 281° |
| 2026-04-28 09:58 | -7.55296 | 112.73310 | 12817 ft | 297 kts | 281° |
| 2026-04-28 09:58 | -7.54899 | 112.71266 | 12817 ft | 297 kts | 281° |
| 2026-04-28 09:58 | -7.54500 | 112.69222 | 12818 ft | 297 kts | 281° |
| 2026-04-28 09:58 | -7.54099 | 112.67168 | 12677 ft | 300 kts | 281° |
| 2026-04-28 09:59 | -7.53693 | 112.65098 | 12399 ft | 301 kts | 281° |
| 2026-04-28 09:59 | -7.53287 | 112.63035 | 12138 ft | 298 kts | 282° |
| 2026-04-28 09:59 | -7.52886 | 112.60995 | 11877 ft | 294 kts | 282° |
| 2026-04-28 09:59 | -7.52492 | 112.58988 | 11626 ft | 290 kts | 282° |
| 2026-04-28 10:00 | -7.52233 | 112.57671 | 11462 ft | 288 kts | 282° |
| 2026-04-28 10:00 | -7.51715 | 112.55035 | 11137 ft | 285 kts | 282° |
| 2026-04-28 10:00 | -7.51335 | 112.53105 | 10904 ft | 283 kts | 282° |
| 2026-04-28 10:00 | -7.50953 | 112.51163 | 10668 ft | 282 kts | 282° |
| 2026-04-28 10:01 | -7.50574 | 112.49231 | 10429 ft | 281 kts | 282° |
| 2026-04-28 10:01 | -7.50195 | 112.47305 | 10190 ft | 280 kts | 282° |
| 2026-04-28 10:01 | -7.49817 | 112.45382 | 9954 ft | 279 kts | 282° |
| 2026-04-28 10:01 | -7.49444 | 112.43480 | 9842 ft | 275 kts | 282° |
| 2026-04-28 10:02 | -7.49196 | 112.42220 | 9689 ft | 279 kts | 282° |
| 2026-04-28 10:02 | -7.48815 | 112.40283 | 9421 ft | 284 kts | 282° |
| 2026-04-28 10:02 | -7.48430 | 112.38321 | 9155 ft | 286 kts | 282° |
| 2026-04-28 10:02 | -7.48045 | 112.36363 | 8890 ft | 284 kts | 282° |
| 2026-04-28 10:03 | -7.47663 | 112.34423 | 8636 ft | 280 kts | 282° |
| 2026-04-28 10:03 | -7.47141 | 112.32553 | 8363 ft | 276 kts | 300° |
| 2026-04-28 10:03 | -7.45895 | 112.31155 | 8135 ft | 267 kts | 330° |
| 2026-04-28 10:03 | -7.44194 | 112.30478 | 7913 ft | 261 kts | 353° |
| 2026-04-28 10:04 | -7.42398 | 112.30477 | 7699 ft | 258 kts | 11° |
| 2026-04-28 10:04 | -7.40616 | 112.30778 | 7474 ft | 261 kts | 12° |
| 2026-04-28 10:04 | -7.38811 | 112.31093 | 7244 ft | 265 kts | 12° |
| 2026-04-28 10:04 | -7.36989 | 112.31402 | 6998 ft | 264 kts | 11° |
| 2026-04-28 10:05 | -7.35184 | 112.31701 | 6760 ft | 261 kts | 11° |
| 2026-04-28 10:05 | -7.33399 | 112.31996 | 6529 ft | 258 kts | 12° |
| 2026-04-28 10:05 | -7.31776 | 112.32614 | 6279 ft | 251 kts | 40° |
| 2026-04-28 10:05 | -7.30718 | 112.33955 | 6079 ft | 244 kts | 68° |
| 2026-04-28 10:06 | -7.30384 | 112.35610 | 5849 ft | 243 kts | 96° |
| 2026-04-28 10:06 | -7.30845 | 112.37226 | 5688 ft | 236 kts | 110° |
| 2026-04-28 10:06 | -7.31351 | 112.38768 | 5459 ft | 227 kts | 105° |
| 2026-04-28 10:06 | -7.31724 | 112.40275 | 5263 ft | 216 kts | 102° |
| 2026-04-28 10:07 | -7.32009 | 112.41720 | 5059 ft | 206 kts | 100° |
| 2026-04-28 10:07 | -7.32252 | 112.43111 | 4805 ft | 199 kts | 99° |
| 2026-04-28 10:07 | -7.32479 | 112.44480 | 4486 ft | 195 kts | 99° |
| 2026-04-28 10:07 | -7.32688 | 112.45760 | 4480 ft | 183 kts | 99° |
| 2026-04-28 10:08 | -7.32893 | 112.47027 | 4366 ft | 185 kts | 99° |
| 2026-04-28 10:08 | -7.33098 | 112.48310 | 4212 ft | 186 kts | 99° |
| 2026-04-28 10:08 | -7.33306 | 112.49600 | 4049 ft | 186 kts | 99° |
| 2026-04-28 10:08 | -7.33509 | 112.50866 | 3885 ft | 185 kts | 99° |
| 2026-04-28 10:09 | -7.33714 | 112.52141 | 3723 ft | 184 kts | 99° |
| 2026-04-28 10:09 | -7.33913 | 112.53387 | 3575 ft | 176 kts | 99° |
| 2026-04-28 10:09 | -7.34108 | 112.54598 | 3427 ft | 174 kts | 99° |
| 2026-04-28 10:09 | -7.34295 | 112.55766 | 3305 ft | 165 kts | 99° |
| 2026-04-28 10:10 | -7.34474 | 112.56879 | 3157 ft | 159 kts | 99° |
| 2026-04-28 10:10 | -7.34646 | 112.57979 | 3046 ft | 159 kts | 99° |
| 2026-04-28 10:10 | -7.34814 | 112.59079 | 2909 ft | 159 kts | 99° |
| 2026-04-28 10:10 | -7.34985 | 112.60178 | 2789 ft | 159 kts | 99° |
| 2026-04-28 10:11 | -7.35151 | 112.61275 | 2659 ft | 161 kts | 99° |
| 2026-04-28 10:11 | -7.35327 | 112.62395 | 2585 ft | 162 kts | 99° |
| 2026-04-28 10:11 | -7.35503 | 112.63501 | 2431 ft | 158 kts | 99° |
| 2026-04-28 10:11 | -7.35678 | 112.64581 | 2305 ft | 155 kts | 99° |
| 2026-04-28 10:12 | -7.35856 | 112.65650 | 2170 ft | 156 kts | 99° |
| 2026-04-28 10:12 | -7.36036 | 112.66728 | 2066 ft | 156 kts | 99° |
| 2026-04-28 10:12 | -7.36232 | 112.67819 | 1862 ft | 159 kts | 100° |
| 2026-04-28 10:12 | -7.36442 | 112.68928 | 1699 ft | 162 kts | 98° |
| 2026-04-28 10:13 | -7.36615 | 112.70051 | 1543 ft | 164 kts | 98° |
| 2026-04-28 10:13 | -7.36789 | 112.71206 | 1337 ft | 168 kts | 98° |
| 2026-04-28 10:13 | -7.36975 | 112.72394 | 1069 ft | 175 kts | 98° |
| 2026-04-28 10:13 | -7.37164 | 112.73615 | 832 ft | 183 kts | 99° |
| 2026-04-28 10:14 | -7.37379 | 112.74866 | 550 ft | 176 kts | 97° |
| 2026-04-28 10:14 | -7.37561 | 112.76036 | 314 ft | 166 kts | 97° |
| 2026-04-28 10:14 | -7.37741 | 112.77160 | 100 ft | 155 kts | 97° |
| 2026-04-28 10:14 | -7.37899 | 112.78159 | 9 ft | 135 kts | 97° |
| 2026-04-28 10:15 | -7.38000 | 112.78841 | 9 ft | 65 kts | 100° |
| 2026-04-28 10:15 | -7.38042 | 112.79091 | 10 ft | 15 kts | 99° |
| 2026-04-28 10:15 | -7.38050 | 112.79162 | 10 ft | 8 kts | 90° |
| 2026-04-28 10:15 | -7.38045 | 112.79216 | 10 ft | 8 kts | 82° |
| 2026-04-28 10:16 | -7.38030 | 112.79266 | 9 ft | 8 kts | 68° |
| 2026-04-28 10:16 | -7.38011 | 112.79316 | 8 ft | 8 kts | 69° |
| 2026-04-28 10:16 | -7.37992 | 112.79364 | 9 ft | 7 kts | 69° |
| 2026-04-28 10:16 | -7.37987 | 112.79377 | 9 ft | 1 kts | 69° |
| 2026-04-28 10:17 | -7.37983 | 112.79387 | 8 ft | 2 kts | 64° |
| 2026-04-28 10:17 | -7.37961 | 112.79408 | 8 ft | 7 kts | 29° |
| 2026-04-28 10:17 | -7.37905 | 112.79417 | 8 ft | 8 kts | 6° |
| 2026-04-28 10:17 | -7.37868 | 112.79421 | 8 ft | 3 kts | 5° |
| 2026-04-28 10:18 | -7.37838 | 112.79425 | 8 ft | 5 kts | 9° |
| 2026-04-28 10:18 | -7.37796 | 112.79432 | 8 ft | 7 kts | 9° |
| 2026-04-28 10:18 | -7.37749 | 112.79440 | 8 ft | 7 kts | 9° |
| 2026-04-28 10:18 | -7.37709 | 112.79447 | 8 ft | 5 kts | 8° |
| 2026-04-28 10:19 | -7.37679 | 112.79430 | 8 ft | 5 kts | 301° |
| 2026-04-28 10:19 | -7.37668 | 112.79392 | 8 ft | 6 kts | 283° |
| 2026-04-28 10:19 | -7.37662 | 112.79360 | 9 ft | 4 kts | 281° |
| 2026-04-28 10:19 | -7.37647 | 112.79339 | 8 ft | 4 kts | 346° |
| 2026-04-28 10:20 | -7.37616 | 112.79340 | 8 ft | 5 kts | 5° |
| 2026-04-28 10:20 | -7.37584 | 112.79344 | 9 ft | 4 kts | 9° |
| 2026-04-28 10:20 | -7.37572 | 112.79346 | 8 ft | 0 kts | 11° |